createdAt,value
2019-02-27T18:49:34.143Z,13.20
2019-02-27T18:54:40.514Z,13.20
2019-02-27T18:59:46.784Z,13.30
2019-02-27T19:04:53.079Z,13.30
2019-02-27T19:10:03.744Z,13.20
2019-02-27T19:15:13.685Z,13.10
2019-02-27T19:20:24.740Z,13.00
2019-02-27T19:25:34.078Z,13.00
2019-02-27T19:30:41.860Z,12.90
2019-02-27T19:35:50.270Z,12.80
2019-02-27T19:40:56.610Z,12.60
2019-02-27T19:46:02.921Z,12.60
2019-02-27T19:51:10.807Z,12.60
2019-02-27T19:56:17.227Z,12.30
2019-02-27T20:01:23.864Z,12.20
2019-02-27T20:06:30.240Z,12.20
2019-02-27T20:11:40.236Z,12.10
2019-02-27T20:16:57.365Z,11.90
2019-02-27T20:22:03.742Z,11.80
2019-02-27T20:27:10.353Z,11.60
2019-02-27T20:32:16.833Z,11.50
2019-02-27T20:37:23.368Z,11.40
2019-02-27T20:42:30.080Z,11.40
2019-02-27T20:47:37.730Z,11.30
2019-02-27T20:52:46.431Z,11.20
2019-02-27T20:57:52.276Z,11.10
2019-02-27T21:03:00.652Z,11.00
2019-02-27T21:08:06.683Z,10.80
2019-02-27T21:13:15.976Z,10.70
2019-02-27T21:18:21.211Z,10.60
2019-02-27T21:23:27.567Z,10.60
2019-02-27T21:28:35.722Z,10.60
2019-02-27T21:33:42.517Z,10.40
2019-02-27T21:38:51.390Z,10.40
2019-02-27T21:43:57.772Z,10.40
2019-02-27T21:49:04.257Z,10.30
2019-02-27T21:54:11.636Z,10.20
2019-02-27T21:59:17.913Z,10.10
2019-02-27T22:04:24.156Z,10.00
2019-02-27T22:09:30.640Z,9.90
2019-02-27T22:14:37.982Z,9.90
2019-02-27T22:19:44.243Z,9.80
2019-02-27T22:24:55.537Z,9.70
2019-02-27T22:30:02.135Z,9.60
2019-02-27T22:35:08.702Z,9.50
2019-02-27T22:40:26.573Z,9.30
2019-02-27T22:45:38.148Z,9.30
2019-02-27T22:50:41.816Z,9.20
2019-02-27T22:55:48.405Z,9.20
2019-02-27T23:01:08.475Z,9.10
2019-02-27T23:06:15.526Z,9.10
2019-02-27T23:11:21.731Z,9.10
2019-02-27T23:16:29.746Z,8.90
2019-02-27T23:21:36.035Z,8.80
2019-02-27T23:26:42.332Z,8.80
2019-02-27T23:31:48.776Z,8.70
2019-02-27T23:36:55.853Z,8.70
2019-02-27T23:42:02.999Z,8.60
2019-02-27T23:47:09.333Z,8.50
2019-02-27T23:52:16.076Z,8.60
2019-02-27T23:57:23.661Z,8.60
